sensor_id;sensor_type;location;lat;lon;timestamp;pressure;altitude;pressure_sealevel;temperature;humidity
71149;BME280;59072;42.144;25.200;2022-12-18T00:00:06;100654.06;;;9.00;100.00
71149;BME280;59072;42.144;25.200;2022-12-18T00:02:31;100646.94;;;9.07;100.00
71149;BME280;59072;42.144;25.200;2022-12-18T00:04:58;100638.19;;;9.13;100.00
71149;BME280;59072;42.144;25.200;2022-12-18T00:07:24;100639.50;;;8.96;100.00
71149;BME280;59072;42.144;25.200;2022-12-18T00:09:49;100642.31;;;8.88;100.00
71149;BME280;59072;42.144;25.200;2022-12-18T00:12:15;100672.50;;;9.01;100.00
71149;BME280;59072;42.144;25.200;2022-12-18T00:14:40;100716.13;;;9.07;100.00
71149;BME280;59072;42.144;25.200;2022-12-18T00:17:05;100723.88;;;9.02;100.00
71149;BME280;59072;42.144;25.200;2022-12-18T00:19:31;100750.84;;;8.99;100.00
71149;BME280;59072;42.144;25.200;2022-12-18T00:21:56;100744.28;;;8.73;100.00
71149;BME280;59072;42.144;25.200;2022-12-18T00:24:23;100747.75;;;8.74;100.00
71149;BME280;59072;42.144;25.200;2022-12-18T00:26:48;100744.91;;;8.75;100.00
71149;BME280;59072;42.144;25.200;2022-12-18T00:29:14;100744.16;;;8.81;100.00
71149;BME280;59072;42.144;25.200;2022-12-18T00:31:40;100736.53;;;9.00;100.00
71149;BME280;59072;42.144;25.200;2022-12-18T00:34:10;100751.91;;;9.04;100.00
71149;BME280;59072;42.144;25.200;2022-12-18T00:36:36;100757.91;;;9.13;100.00
71149;BME280;59072;42.144;25.200;2022-12-18T00:39:04;100758.03;;;9.27;100.00
71149;BME280;59072;42.144;25.200;2022-12-18T00:41:29;100752.72;;;9.27;100.00
71149;BME280;59072;42.144;25.200;2022-12-18T00:44:15;100763.41;;;9.33;100.00
71149;BME280;59072;42.144;25.200;2022-12-18T00:46:42;100761.44;;;9.42;100.00
71149;BME280;59072;42.144;25.200;2022-12-18T00:49:08;100745.50;;;9.49;100.00
71149;BME280;59072;42.144;25.200;2022-12-18T00:51:34;100730.91;;;9.38;100.00
71149;BME280;59072;42.144;25.200;2022-12-18T00:54:00;100759.88;;;9.89;100.00
71149;BME280;59072;42.144;25.200;2022-12-18T00:56:25;100746.16;;;9.92;100.00
71149;BME280;59072;42.144;25.200;2022-12-18T00:58:51;100741.03;;;9.56;100.00
71149;BME280;59072;42.144;25.200;2022-12-18T01:01:16;100737.19;;;9.58;100.00
71149;BME280;59072;42.144;25.200;2022-12-18T01:03:42;100774.31;;;9.67;100.00
71149;BME280;59072;42.144;25.200;2022-12-18T01:06:09;100772.16;;;9.55;100.00
71149;BME280;59072;42.144;25.200;2022-12-18T01:08:37;100761.69;;;9.54;100.00
71149;BME280;59072;42.144;25.200;2022-12-18T01:11:15;100754.50;;;9.48;100.00
71149;BME280;59072;42.144;25.200;2022-12-18T01:13:41;100772.91;;;9.71;100.00
71149;BME280;59072;42.144;25.200;2022-12-18T01:16:06;100755.41;;;9.61;100.00
71149;BME280;59072;42.144;25.200;2022-12-18T01:18:32;100770.22;;;9.71;100.00
71149;BME280;59072;42.144;25.200;2022-12-18T01:20:57;100763.69;;;9.73;100.00
71149;BME280;59072;42.144;25.200;2022-12-18T01:23:26;100743.31;;;9.59;100.00
71149;BME280;59072;42.144;25.200;2022-12-18T01:25:52;100721.75;;;9.54;100.00
71149;BME280;59072;42.144;25.200;2022-12-18T01:28:17;100755.38;;;9.55;100.00
71149;BME280;59072;42.144;25.200;2022-12-18T01:30:43;100739.75;;;9.45;100.00
71149;BME280;59072;42.144;25.200;2022-12-18T01:33:08;100738.09;;;9.44;100.00
71149;BME280;59072;42.144;25.200;2022-12-18T01:35:40;100760.69;;;9.55;100.00
71149;BME280;59072;42.144;25.200;2022-12-18T01:38:05;100770.53;;;9.54;100.00
71149;BME280;59072;42.144;25.200;2022-12-18T01:40:30;100759.00;;;9.47;100.00
71149;BME280;59072;42.144;25.200;2022-12-18T01:42:56;100781.56;;;9.51;100.00
71149;BME280;59072;42.144;25.200;2022-12-18T01:45:24;100783.25;;;9.59;100.00
71149;BME280;59072;42.144;25.200;2022-12-18T01:47:59;100775.91;;;9.61;100.00
71149;BME280;59072;42.144;25.200;2022-12-18T01:53:10;100771.84;;;9.37;100.00
71149;BME280;59072;42.144;25.200;2022-12-18T01:55:51;100777.78;;;9.39;100.00
71149;BME280;59072;42.144;25.200;2022-12-18T01:58:18;100758.44;;;9.23;100.00
71149;BME280;59072;42.144;25.200;2022-12-18T02:00:45;100776.97;;;9.38;100.00
71149;BME280;59072;42.144;25.200;2022-12-18T02:03:10;100761.28;;;9.22;100.00
71149;BME280;59072;42.144;25.200;2022-12-18T02:10:57;100774.72;;;9.14;100.00
71149;BME280;59072;42.144;25.200;2022-12-18T02:18:49;100757.81;;;9.00;100.00
71149;BME280;59072;42.144;25.200;2022-12-18T02:21:45;100752.72;;;9.05;100.00
71149;BME280;59072;42.144;25.200;2022-12-18T02:26:55;100785.25;;;9.22;100.00
71149;BME280;59072;42.144;25.200;2022-12-18T02:29:24;100778.03;;;9.16;100.00
71149;BME280;59072;42.144;25.200;2022-12-18T02:31:56;100779.59;;;9.10;100.00
71149;BME280;59072;42.144;25.200;2022-12-18T02:34:27;100793.22;;;9.22;100.00
71149;BME280;59072;42.144;25.200;2022-12-18T02:36:54;100777.31;;;9.29;100.00
71149;BME280;59072;42.144;25.200;2022-12-18T02:39:21;100790.88;;;9.34;100.00
71149;BME280;59072;42.144;25.200;2022-12-18T02:41:49;100793.03;;;9.23;100.00
71149;BME280;59072;42.144;25.200;2022-12-18T02:44:15;100794.03;;;9.22;100.00
71149;BME280;59072;42.144;25.200;2022-12-18T02:46:43;100792.41;;;9.21;100.00
71149;BME280;59072;42.144;25.200;2022-12-18T02:57:16;100790.44;;;9.58;100.00
71149;BME280;59072;42.144;25.200;2022-12-18T03:00:04;100776.69;;;9.55;100.00
71149;BME280;59072;42.144;25.200;2022-12-18T03:02:48;100784.50;;;9.63;100.00
71149;BME280;59072;42.144;25.200;2022-12-18T03:08:06;100797.56;;;9.58;100.00
71149;BME280;59072;42.144;25.200;2022-12-18T03:10:38;100805.22;;;9.68;100.00
71149;BME280;59072;42.144;25.200;2022-12-18T03:13:08;100787.38;;;9.61;100.00
71149;BME280;59072;42.144;25.200;2022-12-18T03:15:42;100792.31;;;9.64;100.00
71149;BME280;59072;42.144;25.200;2022-12-18T03:18:21;100816.47;;;9.63;100.00
71149;BME280;59072;42.144;25.200;2022-12-18T03:20:49;100798.34;;;9.52;100.00
71149;BME280;59072;42.144;25.200;2022-12-18T03:23:19;100792.84;;;9.53;100.00
71149;BME280;59072;42.144;25.200;2022-12-18T03:25:46;100818.59;;;9.74;100.00
71149;BME280;59072;42.144;25.200;2022-12-18T03:28:17;100824.97;;;9.80;100.00
71149;BME280;59072;42.144;25.200;2022-12-18T03:30:47;100807.88;;;9.68;100.00
71149;BME280;59072;42.144;25.200;2022-12-18T03:33:26;100835.25;;;9.83;100.00
71149;BME280;59072;42.144;25.200;2022-12-18T03:35:52;100828.53;;;9.87;100.00
71149;BME280;59072;42.144;25.200;2022-12-18T03:38:18;100837.44;;;9.73;100.00
71149;BME280;59072;42.144;25.200;2022-12-18T03:46:07;100849.72;;;9.74;100.00
71149;BME280;59072;42.144;25.200;2022-12-18T03:49:08;100858.78;;;9.79;100.00
71149;BME280;59072;42.144;25.200;2022-12-18T03:51:48;100855.16;;;9.87;100.00
71149;BME280;59072;42.144;25.200;2022-12-18T03:54:16;100859.72;;;9.93;100.00
71149;BME280;59072;42.144;25.200;2022-12-18T03:56:46;100834.97;;;9.71;100.00
71149;BME280;59072;42.144;25.200;2022-12-18T03:59:15;100849.28;;;9.70;100.00
71149;BME280;59072;42.144;25.200;2022-12-18T04:01:46;100865.41;;;9.90;100.00
71149;BME280;59072;42.144;25.200;2022-12-18T04:04:14;100871.38;;;9.92;100.00
71149;BME280;59072;42.144;25.200;2022-12-18T04:06:41;100853.16;;;9.68;100.00
71149;BME280;59072;42.144;25.200;2022-12-18T04:09:07;100874.34;;;9.76;100.00
71149;BME280;59072;42.144;25.200;2022-12-18T04:11:33;100872.00;;;9.66;100.00
71149;BME280;59072;42.144;25.200;2022-12-18T04:13:58;100877.88;;;9.55;100.00
71149;BME280;59072;42.144;25.200;2022-12-18T04:16:25;100859.69;;;9.37;100.00
71149;BME280;59072;42.144;25.200;2022-12-18T04:18:52;100878.69;;;9.55;100.00
71149;BME280;59072;42.144;25.200;2022-12-18T04:21:17;100890.53;;;9.53;100.00
71149;BME280;59072;42.144;25.200;2022-12-18T04:23:43;100884.91;;;9.41;100.00
71149;BME280;59072;42.144;25.200;2022-12-18T04:26:08;100874.53;;;9.46;100.00
71149;BME280;59072;42.144;25.200;2022-12-18T04:28:33;100879.50;;;9.56;100.00
71149;BME280;59072;42.144;25.200;2022-12-18T04:30:59;100879.06;;;9.52;100.00
71149;BME280;59072;42.144;25.200;2022-12-18T04:33:24;100892.25;;;9.60;100.00
71149;BME280;59072;42.144;25.200;2022-12-18T04:35:50;100904.16;;;9.64;100.00
71149;BME280;59072;42.144;25.200;2022-12-18T04:38:15;100903.44;;;9.77;100.00
71149;BME280;59072;42.144;25.200;2022-12-18T04:40:41;100904.53;;;9.83;100.00
71149;BME280;59072;42.144;25.200;2022-12-18T04:43:06;100904.53;;;9.83;100.00
71149;BME280;59072;42.144;25.200;2022-12-18T04:45:32;100910.41;;;9.78;100.00
71149;BME280;59072;42.144;25.200;2022-12-18T04:47:58;100889.00;;;9.65;100.00
71149;BME280;59072;42.144;25.200;2022-12-18T04:50:24;100895.09;;;9.59;100.00
71149;BME280;59072;42.144;25.200;2022-12-18T04:52:49;100910.50;;;9.63;100.00
71149;BME280;59072;42.144;25.200;2022-12-18T04:55:15;100906.19;;;9.62;100.00
71149;BME280;59072;42.144;25.200;2022-12-18T04:57:40;100924.25;;;9.67;100.00
71149;BME280;59072;42.144;25.200;2022-12-18T05:00:06;100930.41;;;9.68;100.00
71149;BME280;59072;42.144;25.200;2022-12-18T05:02:32;100926.59;;;9.77;100.00
71149;BME280;59072;42.144;25.200;2022-12-18T05:04:57;100933.63;;;9.84;100.00
71149;BME280;59072;42.144;25.200;2022-12-18T05:07:23;100919.91;;;9.88;100.00
71149;BME280;59072;42.144;25.200;2022-12-18T05:09:48;100935.13;;;9.94;100.00
71149;BME280;59072;42.144;25.200;2022-12-18T05:12:14;100944.97;;;9.93;100.00
71149;BME280;59072;42.144;25.200;2022-12-18T05:14:39;100928.00;;;9.73;100.00
71149;BME280;59072;42.144;25.200;2022-12-18T05:17:04;100933.13;;;9.74;100.00
71149;BME280;59072;42.144;25.200;2022-12-18T05:19:30;100939.47;;;9.73;100.00
71149;BME280;59072;42.144;25.200;2022-12-18T05:21:55;100939.78;;;9.85;100.00
71149;BME280;59072;42.144;25.200;2022-12-18T05:24:21;100952.97;;;9.93;100.00
71149;BME280;59072;42.144;25.200;2022-12-18T05:26:46;100955.34;;;10.10;100.00
71149;BME280;59072;42.144;25.200;2022-12-18T05:29:12;100958.66;;;10.12;100.00
71149;BME280;59072;42.144;25.200;2022-12-18T05:31:38;100964.59;;;10.14;100.00
71149;BME280;59072;42.144;25.200;2022-12-18T05:34:04;100966.88;;;10.17;100.00
71149;BME280;59072;42.144;25.200;2022-12-18T05:36:30;100959.66;;;10.11;100.00
71149;BME280;59072;42.144;25.200;2022-12-18T05:38:55;100964.84;;;10.19;100.00
71149;BME280;59072;42.144;25.200;2022-12-18T05:41:21;100982.84;;;10.38;100.00
71149;BME280;59072;42.144;25.200;2022-12-18T05:43:47;100990.84;;;10.38;100.00
71149;BME280;59072;42.144;25.200;2022-12-18T05:46:15;100967.75;;;10.24;100.00
71149;BME280;59072;42.144;25.200;2022-12-18T05:48:43;100990.41;;;10.35;100.00
71149;BME280;59072;42.144;25.200;2022-12-18T05:51:13;101003.19;;;10.46;100.00
71149;BME280;59072;42.144;25.200;2022-12-18T05:53:40;101002.34;;;10.39;100.00
71149;BME280;59072;42.144;25.200;2022-12-18T05:56:08;101006.63;;;10.40;100.00
71149;BME280;59072;42.144;25.200;2022-12-18T05:58:34;100989.19;;;10.37;100.00
71149;BME280;59072;42.144;25.200;2022-12-18T06:01:16;101009.66;;;10.30;100.00
71149;BME280;59072;42.144;25.200;2022-12-18T06:03:42;101015.75;;;10.24;100.00
71149;BME280;59072;42.144;25.200;2022-12-18T06:06:16;101001.34;;;9.97;100.00
71149;BME280;59072;42.144;25.200;2022-12-18T06:08:42;101018.53;;;10.16;100.00
71149;BME280;59072;42.144;25.200;2022-12-18T06:11:07;101025.47;;;10.10;100.00
71149;BME280;59072;42.144;25.200;2022-12-18T06:13:32;101037.13;;;10.09;100.00
71149;BME280;59072;42.144;25.200;2022-12-18T06:15:59;101023.38;;;10.05;100.00
71149;BME280;59072;42.144;25.200;2022-12-18T06:18:26;101034.84;;;10.06;100.00
71149;BME280;59072;42.144;25.200;2022-12-18T06:20:56;101019.91;;;9.83;100.00
71149;BME280;59072;42.144;25.200;2022-12-18T06:23:22;101034.03;;;10.05;100.00
71149;BME280;59072;42.144;25.200;2022-12-18T06:25:47;101044.25;;;10.02;100.00
71149;BME280;59072;42.144;25.200;2022-12-18T06:28:12;101057.13;;;9.98;100.00
71149;BME280;59072;42.144;25.200;2022-12-18T06:30:38;101063.09;;;10.00;100.00
71149;BME280;59072;42.144;25.200;2022-12-18T06:33:03;101038.88;;;9.95;100.00
71149;BME280;59072;42.144;25.200;2022-12-18T06:35:29;101069.44;;;9.99;100.00
71149;BME280;59072;42.144;25.200;2022-12-18T06:37:54;101072.41;;;9.90;100.00
71149;BME280;59072;42.144;25.200;2022-12-18T06:40:20;101070.09;;;10.01;100.00
71149;BME280;59072;42.144;25.200;2022-12-18T06:42:45;101061.50;;;9.84;100.00
71149;BME280;59072;42.144;25.200;2022-12-18T06:45:11;101081.06;;;9.92;100.00
71149;BME280;59072;42.144;25.200;2022-12-18T06:47:36;101092.16;;;9.95;100.00
71149;BME280;59072;42.144;25.200;2022-12-18T06:50:02;101094.94;;;10.09;100.00
71149;BME280;59072;42.144;25.200;2022-12-18T06:52:28;101092.16;;;9.95;100.00
71149;BME280;59072;42.144;25.200;2022-12-18T06:54:53;101083.25;;;9.88;100.00
71149;BME280;59072;42.144;25.200;2022-12-18T06:57:18;101091.53;;;9.93;100.00
71149;BME280;59072;42.144;25.200;2022-12-18T06:59:44;101105.59;;;9.87;100.00
71149;BME280;59072;42.144;25.200;2022-12-18T07:02:12;101113.88;;;9.77;100.00
71149;BME280;59072;42.144;25.200;2022-12-18T07:04:38;101105.84;;;9.71;100.00
71149;BME280;59072;42.144;25.200;2022-12-18T07:07:03;101121.06;;;9.77;100.00
71149;BME280;59072;42.144;25.200;2022-12-18T07:09:29;101113.84;;;9.56;100.00
71149;BME280;59072;42.144;25.200;2022-12-18T07:11:54;101110.53;;;9.54;100.00
71149;BME280;59072;42.144;25.200;2022-12-18T07:14:19;101125.41;;;9.63;100.00
71149;BME280;59072;42.144;25.200;2022-12-18T07:16:45;101116.53;;;9.41;100.00
71149;BME280;59072;42.144;25.200;2022-12-18T07:19:11;101138.25;;;9.59;100.00
71149;BME280;59072;42.144;25.200;2022-12-18T07:21:36;101128.53;;;9.67;100.00
71149;BME280;59072;42.144;25.200;2022-12-18T07:24:01;101135.31;;;9.69;100.00
71149;BME280;59072;42.144;25.200;2022-12-18T07:26:27;101137.81;;;9.71;100.00
71149;BME280;59072;42.144;25.200;2022-12-18T07:28:55;101131.72;;;9.77;100.00
71149;BME280;59072;42.144;25.200;2022-12-18T07:31:21;101139.44;;;9.72;100.00
71149;BME280;59072;42.144;25.200;2022-12-18T07:33:47;101143.88;;;9.64;100.00
71149;BME280;59072;42.144;25.200;2022-12-18T07:36:14;101131.09;;;9.60;100.00
71149;BME280;59072;42.144;25.200;2022-12-18T07:38:39;101140.06;;;9.74;100.00
71149;BME280;59072;42.144;25.200;2022-12-18T07:41:07;101147.53;;;9.63;100.00
71149;BME280;59072;42.144;25.200;2022-12-18T07:43:34;101154.31;;;9.81;100.00
71149;BME280;59072;42.144;25.200;2022-12-18T07:46:00;101139.38;;;9.65;100.00
71149;BME280;59072;42.144;25.200;2022-12-18T07:48:25;101157.91;;;9.73;100.00
71149;BME280;59072;42.144;25.200;2022-12-18T07:50:52;101174.66;;;9.89;100.00
71149;BME280;59072;42.144;25.200;2022-12-18T07:53:18;101167.16;;;9.77;100.00
71149;BME280;59072;42.144;25.200;2022-12-18T07:55:43;101174.34;;;9.77;100.00
71149;BME280;59072;42.144;25.200;2022-12-18T07:58:09;101187.75;;;9.83;100.00
71149;BME280;59072;42.144;25.200;2022-12-18T08:00:34;101173.41;;;9.70;100.00
71149;BME280;59072;42.144;25.200;2022-12-18T08:03:00;101191.69;;;9.88;100.00
71149;BME280;59072;42.144;25.200;2022-12-18T08:05:26;101196.72;;;9.97;100.00
71149;BME280;59072;42.144;25.200;2022-12-18T08:07:52;101185.16;;;9.90;100.00
71149;BME280;59072;42.144;25.200;2022-12-18T08:10:18;101183.88;;;9.86;100.00
71149;BME280;59072;42.144;25.200;2022-12-18T08:12:43;101198.47;;;9.90;100.00
71149;BME280;59072;42.144;25.200;2022-12-18T08:15:09;101181.69;;;9.75;100.00
71149;BME280;59072;42.144;25.200;2022-12-18T08:17:35;101184.19;;;9.61;100.00
71149;BME280;59072;42.144;25.200;2022-12-18T08:20:00;101205.03;;;9.73;100.00
71149;BME280;59072;42.144;25.200;2022-12-18T08:22:26;101212.38;;;9.71;100.00
71149;BME280;59072;42.144;25.200;2022-12-18T08:24:51;101219.72;;;9.69;100.00
71149;BME280;59072;42.144;25.200;2022-12-18T08:27:17;101221.84;;;9.73;100.00
71149;BME280;59072;42.144;25.200;2022-12-18T08:29:42;101193.94;;;9.54;100.00
71149;BME280;59072;42.144;25.200;2022-12-18T08:32:08;101219.34;;;9.72;100.00
71149;BME280;59072;42.144;25.200;2022-12-18T08:34:33;101210.34;;;9.73;100.00
71149;BME280;59072;42.144;25.200;2022-12-18T08:37:00;101221.75;;;9.67;100.00
71149;BME280;59072;42.144;25.200;2022-12-18T08:39:25;101225.69;;;9.71;100.00
71149;BME280;59072;42.144;25.200;2022-12-18T08:41:51;101228.00;;;9.59;100.00
71149;BME280;59072;42.144;25.200;2022-12-18T08:44:37;101224.22;;;9.68;100.00
71149;BME280;59072;42.144;25.200;2022-12-18T08:47:03;101208.97;;;9.77;100.00
71149;BME280;59072;42.144;25.200;2022-12-18T08:49:28;101225.84;;;9.84;100.00
71149;BME280;59072;42.144;25.200;2022-12-18T08:51:55;101220.44;;;9.77;100.00
71149;BME280;59072;42.144;25.200;2022-12-18T08:54:22;101202.63;;;9.78;100.00
71149;BME280;59072;42.144;25.200;2022-12-18T08:56:48;101198.03;;;9.72;100.00
71149;BME280;59072;42.144;25.200;2022-12-18T08:59:15;101217.50;;;9.72;100.00
71149;BME280;59072;42.144;25.200;2022-12-18T09:01:40;101208.69;;;9.72;100.00
71149;BME280;59072;42.144;25.200;2022-12-18T09:04:06;101192.44;;;9.52;100.00
71149;BME280;59072;42.144;25.200;2022-12-18T09:06:31;101208.69;;;9.72;100.00
71149;BME280;59072;42.144;25.200;2022-12-18T09:08:57;101205.13;;;9.64;100.00
71149;BME280;59072;42.144;25.200;2022-12-18T09:11:25;101193.72;;;9.56;100.00
71149;BME280;59072;42.144;25.200;2022-12-18T09:13:51;101201.09;;;9.69;100.00
71149;BME280;59072;42.144;25.200;2022-12-18T09:16:16;101182.09;;;9.42;100.00
71149;BME280;59072;42.144;25.200;2022-12-18T09:18:42;101201.72;;;9.71;100.00
71149;BME280;59072;42.144;25.200;2022-12-18T09:21:13;101203.19;;;9.73;100.00
71149;BME280;59072;42.144;25.200;2022-12-18T09:23:39;101206.03;;;9.72;100.00
71149;BME280;59072;42.144;25.200;2022-12-18T09:26:05;101213.19;;;9.71;100.00
71149;BME280;59072;42.144;25.200;2022-12-18T09:28:31;101211.91;;;9.67;100.00
71149;BME280;59072;42.144;25.200;2022-12-18T09:30:56;101214.03;;;9.72;100.00
71149;BME280;59072;42.144;25.200;2022-12-18T09:33:22;101198.78;;;9.65;100.00
71149;BME280;59072;42.144;25.200;2022-12-18T09:35:47;101196.75;;;9.68;100.00
71149;BME280;59072;42.144;25.200;2022-12-18T09:38:15;101231.81;;;9.86;100.00
71149;BME280;59072;42.144;25.200;2022-12-18T09:40:52;101225.00;;;9.98;100.00
71149;BME280;59072;42.144;25.200;2022-12-18T09:43:21;101228.84;;;10.11;100.00
71149;BME280;59072;42.144;25.200;2022-12-18T09:45:55;101216.38;;;9.96;100.00
71149;BME280;59072;42.144;25.200;2022-12-18T09:48:26;101223.16;;;9.99;100.00
71149;BME280;59072;42.144;25.200;2022-12-18T09:50:59;101234.81;;;10.13;100.00
71149;BME280;59072;42.144;25.200;2022-12-18T09:53:31;101215.91;;;10.08;100.00
71149;BME280;59072;42.144;25.200;2022-12-18T09:56:01;101228.06;;;9.95;100.00
71149;BME280;59072;42.144;25.200;2022-12-18T09:58:37;101208.88;;;9.85;100.00
71149;BME280;59072;42.144;25.200;2022-12-18T10:01:24;101230.94;;;9.79;100.00
71149;BME280;59072;42.144;25.200;2022-12-18T10:03:50;101219.25;;;9.65;100.00
71149;BME280;59072;42.144;25.200;2022-12-18T10:07:00;101234.88;;;9.83;100.00
71149;BME280;59072;42.144;25.200;2022-12-18T10:09:38;101236.06;;;9.65;100.00
71149;BME280;59072;42.144;25.200;2022-12-18T10:14:57;101243.69;;;9.69;100.00
71149;BME280;59072;42.144;25.200;2022-12-18T10:17:45;101245.78;;;9.88;100.00
71149;BME280;59072;42.144;25.200;2022-12-18T10:26:05;101246.31;;;9.98;100.00
71149;BME280;59072;42.144;25.200;2022-12-18T10:28:33;101250.44;;;10.16;100.00
71149;BME280;59072;42.144;25.200;2022-12-18T10:31:00;101240.31;;;10.11;100.00
71149;BME280;59072;42.144;25.200;2022-12-18T10:33:29;101218.94;;;10.04;100.00
71149;BME280;59072;42.144;25.200;2022-12-18T10:35:55;101235.44;;;10.15;100.00
71149;BME280;59072;42.144;25.200;2022-12-18T10:38:24;101240.00;;;9.99;100.00
71149;BME280;59072;42.144;25.200;2022-12-18T10:48:40;101262.06;;;9.93;100.00
71149;BME280;59072;42.144;25.200;2022-12-18T10:51:33;101270.16;;;9.85;100.00
71149;BME280;59072;42.144;25.200;2022-12-18T10:54:03;101275.75;;;9.90;100.00
71149;BME280;59072;42.144;25.200;2022-12-18T10:56:31;101275.28;;;9.86;100.00
71149;BME280;59072;42.144;25.200;2022-12-18T10:59:03;101269.94;;;9.86;100.00
71149;BME280;59072;42.144;25.200;2022-12-18T11:04:18;101266.00;;;9.97;100.00
71149;BME280;59072;42.144;25.200;2022-12-18T11:09:25;101286.47;;;9.97;100.00
71149;BME280;59072;42.144;25.200;2022-12-18T11:11:53;101275.84;;;9.82;100.00
71149;BME280;59072;42.144;25.200;2022-12-18T11:14:42;101275.53;;;10.06;100.00
71149;BME280;59072;42.144;25.200;2022-12-18T11:19:44;101281.63;;;10.00;100.00
71149;BME280;59072;42.144;25.200;2022-12-18T11:22:21;101284.56;;;10.05;100.00
71149;BME280;59072;42.144;25.200;2022-12-18T11:27:37;101271.34;;;9.97;100.00
71149;BME280;59072;42.144;25.200;2022-12-18T11:30:09;101284.56;;;10.05;100.00
71149;BME280;59072;42.144;25.200;2022-12-18T11:32:36;101292.75;;;9.89;100.00
71149;BME280;59072;42.144;25.200;2022-12-18T11:38:10;101290.44;;;9.86;100.00
71149;BME280;59072;42.144;25.200;2022-12-18T11:40:40;101277.03;;;9.64;100.00
71149;BME280;59072;42.144;25.200;2022-12-18T11:43:16;101275.38;;;9.63;100.00
71149;BME280;59072;42.144;25.200;2022-12-18T11:46:05;101271.06;;;9.77;100.00
71149;BME280;59072;42.144;25.200;2022-12-18T11:48:43;101285.84;;;9.80;100.00
71149;BME280;59072;42.144;25.200;2022-12-18T11:51:15;101273.53;;;9.94;100.00
71149;BME280;59072;42.144;25.200;2022-12-18T11:53:45;101294.69;;;9.95;100.00
71149;BME280;59072;42.144;25.200;2022-12-18T11:58:46;101307.25;;;9.86;100.00
71149;BME280;59072;42.144;25.200;2022-12-18T12:01:35;101295.59;;;9.73;100.00
71149;BME280;59072;42.144;25.200;2022-12-18T12:07:29;101266.38;;;9.64;100.00
71149;BME280;59072;42.144;25.200;2022-12-18T12:10:23;101306.03;;;9.59;100.00
71149;BME280;59072;42.144;25.200;2022-12-18T12:32:41;101308.84;;;9.81;100.00
71149;BME280;59072;42.144;25.200;2022-12-18T12:38:16;101319.00;;;9.62;100.00
71149;BME280;59072;42.144;25.200;2022-12-18T12:40:52;101297.94;;;9.38;100.00
71149;BME280;59072;42.144;25.200;2022-12-18T12:43:24;101320.41;;;9.35;100.00
71149;BME280;59072;42.144;25.200;2022-12-18T12:48:55;101321.06;;;9.37;100.00
71149;BME280;59072;42.144;25.200;2022-12-18T12:51:37;101337.81;;;9.46;100.00
71149;BME280;59072;42.144;25.200;2022-12-18T12:54:08;101343.94;;;9.47;100.00
71149;BME280;59072;42.144;25.200;2022-12-18T12:56:48;101347.69;;;9.37;100.00
71149;BME280;59072;42.144;25.200;2022-12-18T13:04:48;101361.38;;;9.34;100.00
71149;BME280;59072;42.144;25.200;2022-12-18T13:07:39;101378.38;;;9.25;100.00
71149;BME280;59072;42.144;25.200;2022-12-18T13:15:39;101381.25;;;9.23;100.00
71149;BME280;59072;42.144;25.200;2022-12-18T13:34:29;101412.44;;;9.07;100.00
71149;BME280;59072;42.144;25.200;2022-12-18T13:37:34;101394.78;;;8.82;100.00
71149;BME280;59072;42.144;25.200;2022-12-18T13:39:43;101406.59;;;9.11;100.00
71149;BME280;59072;42.144;25.200;2022-12-18T13:44:36;101385.81;;;8.83;100.00
71149;BME280;59072;42.144;25.200;2022-12-18T13:47:42;101411.25;;;9.09;100.00
71149;BME280;59072;42.144;25.200;2022-12-18T13:50:26;101418.53;;;9.23;100.00
71149;BME280;59072;42.144;25.200;2022-12-18T13:52:52;101412.34;;;9.00;100.00
71149;BME280;59072;42.144;25.200;2022-12-18T13:55:19;101422.97;;;9.00;100.00
71149;BME280;59072;42.144;25.200;2022-12-18T13:57:46;101426.06;;;9.12;100.00
71149;BME280;59072;42.144;25.200;2022-12-18T14:00:30;101414.56;;;9.11;100.00
71149;BME280;59072;42.144;25.200;2022-12-18T14:02:57;101435.88;;;9.11;100.00
71149;BME280;59072;42.144;25.200;2022-12-18T14:07:52;101436.44;;;8.98;100.00
71149;BME280;59072;42.144;25.200;2022-12-18T14:10:19;101445.69;;;8.79;100.00
71149;BME280;59072;42.144;25.200;2022-12-18T14:12:47;101427.13;;;8.71;100.00
71149;BME280;59072;42.144;25.200;2022-12-18T14:17:57;101451.22;;;9.01;100.00
71149;BME280;59072;42.144;25.200;2022-12-18T14:20:29;101461.09;;;8.92;100.00
71149;BME280;59072;42.144;25.200;2022-12-18T14:22:55;101462.22;;;8.98;100.00
71149;BME280;59072;42.144;25.200;2022-12-18T14:25:26;101465.44;;;8.93;100.00
71149;BME280;59072;42.144;25.200;2022-12-18T14:30:40;101464.78;;;8.91;100.00
71149;BME280;59072;42.144;25.200;2022-12-18T14:33:19;101478.91;;;8.92;100.00
71149;BME280;59072;42.144;25.200;2022-12-18T14:35:59;101503.50;;;8.94;100.00
71149;BME280;59072;42.144;25.200;2022-12-18T14:38:40;101486.88;;;8.92;100.00
71149;BME280;59072;42.144;25.200;2022-12-18T14:43:38;101505.38;;;8.85;100.00
71149;BME280;59072;42.144;25.200;2022-12-18T14:46:06;101509.50;;;8.88;100.00
71149;BME280;59072;42.144;25.200;2022-12-18T14:48:51;101487.94;;;8.74;100.00
71149;BME280;59072;42.144;25.200;2022-12-18T14:51:21;101511.16;;;8.89;100.00
71149;BME280;59072;42.144;25.200;2022-12-18T14:56:31;101518.41;;;9.03;100.00
71149;BME280;59072;42.144;25.200;2022-12-18T14:59:14;101527.69;;;9.07;100.00
71149;BME280;59072;42.144;25.200;2022-12-18T15:01:47;101521.03;;;9.19;100.00
71149;BME280;59072;42.144;25.200;2022-12-18T15:04:40;101534.66;;;9.16;100.00